createdAt,value
2023-01-30T00:00:31.588Z,2.97
2023-01-30T00:01:31.585Z,3.07
2023-01-30T00:02:31.577Z,2.87
2023-01-30T00:03:31.565Z,2.97
2023-01-30T00:04:31.554Z,2.99
2023-01-30T00:05:31.532Z,2.97
2023-01-30T00:06:31.522Z,2.93
2023-01-30T00:07:31.518Z,2.96
2023-01-30T00:08:31.492Z,3.02
2023-01-30T00:09:31.501Z,2.91
2023-01-30T00:10:31.485Z,2.96
2023-01-30T00:11:31.462Z,2.94
2023-01-30T00:12:31.492Z,3.04
2023-01-30T00:13:31.473Z,2.96
2023-01-30T00:14:31.458Z,2.94
2023-01-30T00:15:31.426Z,3.02
2023-01-30T00:16:31.433Z,3.05
2023-01-30T00:17:31.408Z,2.97
2023-01-30T00:18:31.389Z,3.00
2023-01-30T00:19:31.399Z,3.05
2023-01-30T00:20:31.385Z,3.04
2023-01-30T00:21:31.367Z,2.99
2023-01-30T00:22:31.367Z,2.96
2023-01-30T00:23:31.338Z,2.96
2023-01-30T00:24:31.496Z,2.91
2023-01-30T00:25:31.634Z,2.87
2023-01-30T00:26:31.357Z,2.96
2023-01-30T00:27:31.309Z,2.94
2023-01-30T00:28:31.301Z,2.96
2023-01-30T00:29:31.278Z,3.07
2023-01-30T00:30:31.324Z,2.90
2023-01-30T00:31:31.330Z,2.90
2023-01-30T00:32:31.243Z,3.11
2023-01-30T00:33:31.231Z,2.99
2023-01-30T00:34:31.233Z,2.97
2023-01-30T00:35:31.224Z,3.04
2023-01-30T00:36:31.215Z,3.02
2023-01-30T00:37:31.215Z,2.96
2023-01-30T00:38:31.180Z,2.94
2023-01-30T00:39:31.194Z,2.97
2023-01-30T00:40:31.243Z,2.97
2023-01-30T00:41:31.162Z,2.90
2023-01-30T00:42:31.139Z,3.08
2023-01-30T00:43:31.145Z,3.00
2023-01-30T00:44:31.125Z,2.99
2023-01-30T00:45:31.156Z,2.97
2023-01-30T00:46:31.096Z,2.96
2023-01-30T00:47:31.086Z,2.97
2023-01-30T00:48:31.093Z,3.05
2023-01-30T00:49:31.961Z,2.99
2023-01-30T00:50:31.055Z,3.11
2023-01-30T00:51:31.059Z,3.00
2023-01-30T00:52:31.031Z,3.04
2023-01-30T00:53:31.036Z,3.09
2023-01-30T00:54:31.014Z,3.07
2023-01-30T00:55:31.018Z,3.11
2023-01-30T00:56:30.994Z,3.17
2023-01-30T00:57:30.999Z,3.08
2023-01-30T00:58:30.978Z,3.17
2023-01-30T00:59:30.989Z,3.17
2023-01-30T01:00:30.967Z,3.07
2023-01-30T01:01:30.937Z,3.14
2023-01-30T01:02:30.924Z,3.00
2023-01-30T01:03:30.926Z,3.09
2023-01-30T01:04:30.924Z,3.12
2023-01-30T01:05:30.921Z,3.09
2023-01-30T01:06:30.905Z,3.09
2023-01-30T01:07:30.881Z,3.14
2023-01-30T01:08:30.876Z,3.07
2023-01-30T01:09:30.854Z,3.07
2023-01-30T01:10:30.852Z,3.12
2023-01-30T01:11:30.831Z,3.14
2023-01-30T01:12:30.825Z,3.12
2023-01-30T01:13:30.820Z,3.08
2023-01-30T01:14:30.821Z,3.14
2023-01-30T01:15:30.793Z,3.05
2023-01-30T01:16:30.836Z,3.11
2023-01-30T01:17:30.781Z,3.09
2023-01-30T01:18:30.765Z,3.17
2023-01-30T01:19:30.752Z,3.15
2023-01-30T01:20:30.752Z,3.14
2023-01-30T01:21:30.739Z,3.09
2023-01-30T01:22:30.721Z,3.12
2023-01-30T01:23:30.704Z,3.14
2023-01-30T01:24:30.703Z,3.11
2023-01-30T01:25:30.699Z,3.02
2023-01-30T01:26:30.718Z,3.07
2023-01-30T01:27:30.679Z,3.11
2023-01-30T01:28:30.655Z,3.11
2023-01-30T01:29:30.657Z,3.12
2023-01-30T01:30:30.632Z,3.15
2023-01-30T01:31:30.723Z,3.17
2023-01-30T01:32:30.620Z,3.00
2023-01-30T01:33:30.609Z,3.12
2023-01-30T01:34:30.596Z,3.12
2023-01-30T01:35:30.589Z,3.09
2023-01-30T01:36:55.480Z,3.09
2023-01-30T01:37:31.562Z,3.15
2023-01-30T01:38:30.576Z,3.12
2023-01-30T01:39:30.569Z,3.08
2023-01-30T01:40:30.545Z,3.04
2023-01-30T01:41:30.529Z,3.02
2023-01-30T01:42:30.506Z,3.15
2023-01-30T01:43:30.504Z,3.04
2023-01-30T01:44:30.493Z,3.00
2023-01-30T01:45:30.472Z,3.12
2023-01-30T01:46:30.505Z,3.04
2023-01-30T01:47:30.474Z,3.12
2023-01-30T01:48:30.439Z,3.04
2023-01-30T01:49:30.447Z,3.14
2023-01-30T01:50:30.428Z,3.12
2023-01-30T01:51:30.422Z,3.14
2023-01-30T01:52:30.419Z,3.17
2023-01-30T01:53:30.404Z,3.17
2023-01-30T01:54:30.379Z,3.08
2023-01-30T01:55:30.391Z,3.14
2023-01-30T01:56:30.369Z,3.17
2023-01-30T01:57:30.366Z,3.12
2023-01-30T01:58:30.344Z,3.09
2023-01-30T01:59:30.341Z,3.12
2023-01-30T02:00:30.333Z,3.12
2023-01-30T02:01:30.386Z,3.08
2023-01-30T02:02:30.350Z,3.15
2023-01-30T02:03:30.299Z,3.00
2023-01-30T02:04:30.273Z,3.04
2023-01-30T02:05:30.260Z,3.11
2023-01-30T02:06:30.271Z,3.07
2023-01-30T02:07:30.262Z,3.12
2023-01-30T02:08:30.238Z,3.02
2023-01-30T02:09:30.224Z,3.11
2023-01-30T02:10:30.232Z,3.15
2023-01-30T02:11:30.211Z,3.07
2023-01-30T02:12:30.209Z,3.05
2023-01-30T02:13:30.206Z,3.00
2023-01-30T02:14:30.169Z,3.14
2023-01-30T02:15:30.166Z,3.05
2023-01-30T02:16:30.158Z,3.05
2023-01-30T02:17:30.216Z,2.99
2023-01-30T02:18:30.137Z,3.00
2023-01-30T02:19:30.118Z,3.08
2023-01-30T02:20:30.119Z,2.97
2023-01-30T02:21:30.113Z,2.99
2023-01-30T02:22:30.091Z,3.00
2023-01-30T02:23:30.079Z,3.09
2023-01-30T02:24:30.074Z,3.00
2023-01-30T02:25:30.047Z,3.04
2023-01-30T02:26:30.103Z,2.99
2023-01-30T02:27:30.047Z,2.97
2023-01-30T02:28:30.020Z,3.00
2023-01-30T02:29:30.027Z,2.94
2023-01-30T02:30:30.141Z,2.96
2023-01-30T02:31:30.130Z,2.96
2023-01-30T02:32:29.988Z,3.11
2023-01-30T02:33:29.977Z,2.90
2023-01-30T02:34:29.966Z,3.02
2023-01-30T02:35:29.959Z,2.91
2023-01-30T02:36:29.941Z,2.87
2023-01-30T02:37:29.929Z,2.90
2023-01-30T02:38:29.939Z,2.94
2023-01-30T02:39:29.921Z,2.89
2023-01-30T02:40:29.904Z,2.97
2023-01-30T02:41:29.884Z,2.97
2023-01-30T02:42:29.889Z,2.96
2023-01-30T02:43:29.876Z,3.07
2023-01-30T02:44:29.857Z,2.94
2023-01-30T02:45:29.862Z,3.11
2023-01-30T02:46:29.831Z,3.11
2023-01-30T02:47:29.821Z,3.09
2023-01-30T02:48:29.818Z,3.15
2023-01-30T02:49:29.807Z,3.14
2023-01-30T02:50:29.808Z,3.09
2023-01-30T02:51:29.826Z,3.09
2023-01-30T02:52:29.773Z,3.17
2023-01-30T02:53:29.769Z,3.15
2023-01-30T02:54:29.754Z,3.26
2023-01-30T02:55:29.754Z,3.23
2023-01-30T02:56:29.738Z,3.25
2023-01-30T02:57:29.733Z,3.29
2023-01-30T02:58:29.712Z,3.27
2023-01-30T02:59:29.697Z,3.29
2023-01-30T03:00:29.687Z,3.27
2023-01-30T03:01:29.709Z,3.36
2023-01-30T03:02:29.747Z,3.32
2023-01-30T03:03:29.660Z,3.33
2023-01-30T03:04:29.650Z,3.46
2023-01-30T03:05:29.648Z,3.41
2023-01-30T03:06:29.643Z,3.36
2023-01-30T03:07:29.647Z,3.44
2023-01-30T03:08:29.601Z,3.51
2023-01-30T03:09:29.596Z,3.52
2023-01-30T03:10:29.598Z,3.54
2023-01-30T03:11:29.573Z,3.56
2023-01-30T03:12:29.567Z,3.59
2023-01-30T03:13:29.546Z,3.56
2023-01-30T03:14:29.545Z,3.62
2023-01-30T03:15:29.550Z,3.60
2023-01-30T03:16:29.542Z,3.54
2023-01-30T03:17:29.525Z,3.60
2023-01-30T03:18:29.498Z,3.49
2023-01-30T03:19:29.483Z,3.56
2023-01-30T03:20:29.483Z,3.55
2023-01-30T03:21:29.478Z,3.63
2023-01-30T03:22:29.458Z,3.69
2023-01-30T03:23:29.451Z,3.62
2023-01-30T03:24:29.442Z,3.62
2023-01-30T03:25:29.429Z,3.59
2023-01-30T03:26:29.424Z,3.62
2023-01-30T03:27:29.408Z,3.59
2023-01-30T03:28:29.415Z,3.67
2023-01-30T03:29:29.394Z,3.66
2023-01-30T03:30:29.378Z,3.55
2023-01-30T03:31:29.465Z,3.69
2023-01-30T03:32:29.357Z,3.67
2023-01-30T03:33:29.340Z,3.63
2023-01-30T03:34:29.338Z,3.67
2023-01-30T03:35:29.315Z,3.66
2023-01-30T03:36:29.303Z,3.67
2023-01-30T03:37:29.295Z,3.64
2023-01-30T03:38:29.283Z,3.69
2023-01-30T03:39:29.294Z,3.60
2023-01-30T03:40:29.267Z,3.59
2023-01-30T03:41:29.251Z,3.67
2023-01-30T03:42:29.246Z,3.67
2023-01-30T03:43:29.230Z,3.64
2023-01-30T03:44:29.278Z,3.69
2023-01-30T03:45:29.221Z,3.69
2023-01-30T03:46:29.270Z,3.70
2023-01-30T03:47:29.188Z,3.66
2023-01-30T03:48:29.183Z,3.67
2023-01-30T03:49:29.179Z,3.64
2023-01-30T03:50:29.163Z,3.73
2023-01-30T03:51:29.147Z,3.66
2023-01-30T03:52:29.155Z,3.69
2023-01-30T03:53:29.131Z,3.74
2023-01-30T03:54:29.118Z,3.59
2023-01-30T03:55:29.104Z,3.70
2023-01-30T03:56:29.101Z,3.67
2023-01-30T03:57:29.089Z,3.73
2023-01-30T03:58:29.092Z,3.67
2023-01-30T03:59:29.079Z,3.70
2023-01-30T04:00:29.078Z,3.76
2023-01-30T04:01:29.068Z,3.70
2023-01-30T04:02:29.061Z,3.73
2023-01-30T04:03:29.022Z,3.78
2023-01-30T04:04:29.011Z,3.82
2023-01-30T04:05:28.993Z,3.76
2023-01-30T04:06:29.020Z,3.76
2023-01-30T04:07:29.043Z,3.74
2023-01-30T04:08:28.969Z,3.72
2023-01-30T04:09:28.964Z,3.74
2023-01-30T04:10:28.978Z,3.76
2023-01-30T04:11:28.937Z,3.90
2023-01-30T04:12:28.931Z,3.85
2023-01-30T04:13:28.930Z,3.84
2023-01-30T04:14:28.906Z,3.85
2023-01-30T04:15:28.913Z,3.90
2023-01-30T04:16:28.964Z,3.96
2023-01-30T04:17:28.877Z,3.92
2023-01-30T04:18:28.870Z,3.91
2023-01-30T04:19:28.855Z,3.98
2023-01-30T04:20:28.836Z,4.00
2023-01-30T04:21:28.836Z,3.99
2023-01-30T04:22:28.863Z,4.03
2023-01-30T04:23:28.814Z,4.00
2023-01-30T04:24:28.803Z,4.09
2023-01-30T04:25:28.783Z,4.02
2023-01-30T04:26:28.823Z,4.00
2023-01-30T04:27:28.784Z,4.13
2023-01-30T04:28:28.770Z,4.02
2023-01-30T04:29:28.740Z,4.08
2023-01-30T04:30:28.758Z,4.08
2023-01-30T04:31:28.798Z,4.08
2023-01-30T04:32:28.734Z,4.09
2023-01-30T04:33:28.716Z,4.09
2023-01-30T04:34:28.689Z,4.05
2023-01-30T04:35:28.698Z,4.08
2023-01-30T04:36:28.670Z,4.02
2023-01-30T04:37:28.659Z,4.08
2023-01-30T04:38:28.654Z,4.06
2023-01-30T04:39:28.643Z,4.05
2023-01-30T04:40:28.623Z,4.02
2023-01-30T04:41:28.617Z,4.00
2023-01-30T04:42:28.619Z,4.03
2023-01-30T04:43:28.597Z,4.08
2023-01-30T04:44:28.587Z,4.03
2023-01-30T04:45:29.358Z,4.05
2023-01-30T04:46:28.563Z,3.91
2023-01-30T04:47:28.571Z,3.94
2023-01-30T04:48:28.567Z,3.91
2023-01-30T04:49:28.545Z,3.96
2023-01-30T04:50:28.524Z,3.78
2023-01-30T04:51:28.508Z,3.85
2023-01-30T04:52:28.514Z,3.90
2023-01-30T04:53:28.490Z,3.80
2023-01-30T04:54:28.484Z,3.74
2023-01-30T04:55:28.496Z,3.74
2023-01-30T04:56:28.476Z,3.72
2023-01-30T04:57:28.446Z,3.74
2023-01-30T04:58:28.452Z,3.70
2023-01-30T04:59:28.435Z,3.66
2023-01-30T05:00:28.518Z,3.63
2023-01-30T05:01:28.402Z,3.62
2023-01-30T05:02:28.419Z,3.62
2023-01-30T05:03:28.387Z,3.62
2023-01-30T05:04:28.438Z,3.67
2023-01-30T05:05:28.384Z,3.66
2023-01-30T05:06:28.360Z,3.59
2023-01-30T05:07:28.351Z,3.64
2023-01-30T05:08:28.332Z,3.54
2023-01-30T05:09:28.331Z,3.59
2023-01-30T05:10:28.310Z,3.59
2023-01-30T05:11:28.299Z,3.51
2023-01-30T05:12:28.290Z,3.48
2023-01-30T05:13:28.291Z,3.45
2023-01-30T05:14:28.266Z,3.37
2023-01-30T05:15:28.279Z,3.48
2023-01-30T05:16:28.262Z,3.48
2023-01-30T05:17:28.279Z,3.44
2023-01-30T05:18:28.219Z,3.45
2023-01-30T05:19:28.219Z,3.36
2023-01-30T05:20:28.218Z,3.44
2023-01-30T05:21:28.209Z,3.44
2023-01-30T05:22:28.180Z,3.49
2023-01-30T05:23:28.176Z,3.46
2023-01-30T05:24:28.156Z,3.48
2023-01-30T05:25:28.158Z,3.49
2023-01-30T05:26:28.172Z,3.41
2023-01-30T05:27:28.128Z,3.54
2023-01-30T05:28:28.120Z,3.51
2023-01-30T05:29:28.120Z,3.52
2023-01-30T05:30:28.115Z,3.60
2023-01-30T05:31:28.087Z,3.51
2023-01-30T05:32:28.092Z,3.52
2023-01-30T05:33:28.074Z,3.55
2023-01-30T05:34:28.069Z,3.55
2023-01-30T05:35:28.055Z,3.63
2023-01-30T05:36:28.066Z,3.62
2023-01-30T05:37:28.016Z,3.59
2023-01-30T05:38:28.031Z,3.67
2023-01-30T05:39:28.011Z,3.66
2023-01-30T05:40:28.000Z,3.73
2023-01-30T05:41:27.982Z,3.72
2023-01-30T05:42:27.969Z,3.70
2023-01-30T05:43:27.952Z,3.73
2023-01-30T05:44:27.965Z,3.72
2023-01-30T05:45:27.935Z,3.81
2023-01-30T05:46:27.998Z,3.73
2023-01-30T05:47:27.923Z,3.84
2023-01-30T05:48:27.914Z,3.82
2023-01-30T05:49:27.902Z,3.88
2023-01-30T05:50:27.884Z,3.81
2023-01-30T05:51:27.887Z,3.84
2023-01-30T05:52:27.876Z,3.85
2023-01-30T05:53:27.857Z,3.82
2023-01-30T05:54:27.861Z,3.84
2023-01-30T05:55:27.833Z,3.90
2023-01-30T05:56:27.818Z,3.98
2023-01-30T05:57:27.809Z,3.84
2023-01-30T05:58:27.794Z,3.92
2023-01-30T05:59:27.822Z,3.94
2023-01-30T06:00:27.783Z,3.99
2023-01-30T06:01:27.771Z,3.92
2023-01-30T06:02:27.800Z,3.92
2023-01-30T06:03:27.757Z,3.92
2023-01-30T06:04:27.741Z,3.94
2023-01-30T06:05:27.746Z,3.98
2023-01-30T06:06:27.718Z,3.96
2023-01-30T06:07:27.716Z,3.99
2023-01-30T06:08:27.733Z,4.00
2023-01-30T06:09:27.690Z,4.09
2023-01-30T06:10:27.686Z,4.13
2023-01-30T06:11:27.672Z,4.08
2023-01-30T06:12:27.662Z,4.10
2023-01-30T06:13:27.646Z,4.24
2023-01-30T06:14:27.635Z,4.18
2023-01-30T06:15:27.629Z,4.21
2023-01-30T06:16:27.710Z,4.21
2023-01-30T06:17:29.769Z,4.23
2023-01-30T06:18:27.587Z,4.26
2023-01-30T06:19:27.580Z,4.27
2023-01-30T06:20:27.585Z,4.41
2023-01-30T06:21:27.609Z,4.31
2023-01-30T06:22:27.568Z,4.28
2023-01-30T06:23:27.542Z,4.36
2023-01-30T06:24:27.539Z,4.39
2023-01-30T06:25:27.531Z,4.42
2023-01-30T06:26:27.572Z,4.41
2023-01-30T06:27:27.503Z,4.38
2023-01-30T06:28:27.503Z,4.48
2023-01-30T06:29:27.469Z,4.59
2023-01-30T06:30:27.514Z,4.53
2023-01-30T06:31:27.501Z,4.56
2023-01-30T06:32:27.437Z,4.56
2023-01-30T06:33:27.451Z,4.61
2023-01-30T06:34:27.428Z,4.60
2023-01-30T06:35:27.418Z,4.71
2023-01-30T06:36:27.399Z,4.67
2023-01-30T06:37:27.394Z,4.78
2023-01-30T06:38:27.396Z,4.75
2023-01-30T06:39:27.381Z,4.71
2023-01-30T06:40:27.389Z,4.85
2023-01-30T06:41:27.344Z,4.88
2023-01-30T06:42:27.337Z,4.88
2023-01-30T06:43:27.331Z,4.85
2023-01-30T06:44:27.318Z,4.93
2023-01-30T06:45:27.314Z,5.00
2023-01-30T06:46:27.389Z,4.98
2023-01-30T06:47:27.297Z,4.96
2023-01-30T06:48:27.288Z,5.00
2023-01-30T06:49:27.290Z,4.97
2023-01-30T06:50:27.261Z,5.00
2023-01-30T06:51:27.272Z,4.94
2023-01-30T06:52:27.373Z,4.98
2023-01-30T06:53:27.217Z,5.00
2023-01-30T06:54:27.255Z,5.06
2023-01-30T06:55:27.209Z,5.03
2023-01-30T06:56:27.229Z,5.00
2023-01-30T06:57:27.183Z,4.98
2023-01-30T06:58:27.193Z,4.97
2023-01-30T06:59:27.173Z,5.03
2023-01-30T07:00:27.147Z,4.97
2023-01-30T07:01:28.927Z,5.00
2023-01-30T07:02:27.135Z,5.09
2023-01-30T07:03:27.120Z,5.06
2023-01-30T07:04:27.162Z,5.09
2023-01-30T07:05:27.107Z,5.01
2023-01-30T07:06:27.100Z,5.11
2023-01-30T07:07:27.089Z,5.19
2023-01-30T07:08:27.062Z,5.18
2023-01-30T07:09:27.058Z,5.12
2023-01-30T07:10:27.059Z,5.18
2023-01-30T07:11:27.036Z,5.11
2023-01-30T07:12:27.037Z,5.07
2023-01-30T07:13:27.021Z,5.15
2023-01-30T07:14:26.995Z,5.19
2023-01-30T07:15:26.997Z,5.14
2023-01-30T07:16:27.024Z,5.19
2023-01-30T07:17:26.974Z,5.15
2023-01-30T07:18:26.960Z,5.16
2023-01-30T07:19:26.958Z,5.25
2023-01-30T07:20:26.966Z,5.18
2023-01-30T07:21:26.924Z,5.15
2023-01-30T07:22:26.966Z,5.24
2023-01-30T07:23:26.902Z,5.16
2023-01-30T07:24:26.891Z,5.21
2023-01-30T07:25:26.889Z,5.16
2023-01-30T07:26:26.898Z,5.25
2023-01-30T07:27:26.870Z,5.18
2023-01-30T07:28:26.913Z,5.24
2023-01-30T07:29:26.838Z,5.32
2023-01-30T07:30:26.896Z,5.33
2023-01-30T07:31:26.855Z,5.32
2023-01-30T07:32:26.812Z,5.22
2023-01-30T07:33:26.800Z,5.29
2023-01-30T07:34:26.802Z,5.32
2023-01-30T07:35:26.797Z,5.27
2023-01-30T07:36:26.773Z,5.25
2023-01-30T07:37:26.758Z,5.29
2023-01-30T07:38:26.745Z,5.37
2023-01-30T07:39:26.740Z,5.34
2023-01-30T07:40:26.746Z,5.32
2023-01-30T07:41:26.703Z,5.39
2023-01-30T07:42:26.707Z,5.43
2023-01-30T07:43:26.725Z,5.48
2023-01-30T07:44:26.695Z,5.50
2023-01-30T07:45:26.676Z,5.47
2023-01-30T07:46:26.651Z,5.50
2023-01-30T07:47:26.639Z,5.41
2023-01-30T07:48:26.647Z,5.50
2023-01-30T07:49:26.642Z,5.37
2023-01-30T07:50:26.646Z,5.39
2023-01-30T07:51:26.620Z,5.36
2023-01-30T07:52:26.607Z,5.44
2023-01-30T07:53:26.590Z,5.43
2023-01-30T07:54:26.579Z,5.44
2023-01-30T07:55:26.560Z,5.47
2023-01-30T07:56:26.546Z,5.50
2023-01-30T07:57:26.561Z,5.41
2023-01-30T07:58:26.534Z,5.43
2023-01-30T07:59:26.523Z,5.48
2023-01-30T08:00:26.526Z,5.48
2023-01-30T08:01:26.582Z,5.47
2023-01-30T08:02:26.491Z,5.40
2023-01-30T08:03:26.497Z,5.50
2023-01-30T08:04:26.524Z,5.48
2023-01-30T08:05:26.467Z,5.47
2023-01-30T08:06:26.455Z,5.52
2023-01-30T08:07:26.437Z,5.44
2023-01-30T08:08:26.417Z,5.51
2023-01-30T08:09:26.440Z,5.43
2023-01-30T08:10:26.402Z,5.51
2023-01-30T08:11:26.382Z,5.44
2023-01-30T08:12:26.400Z,5.48
2023-01-30T08:13:26.375Z,5.54
2023-01-30T08:14:26.350Z,5.52
2023-01-30T08:15:26.365Z,5.57
2023-01-30T08:16:26.424Z,5.43
2023-01-30T08:17:26.367Z,5.47
2023-01-30T08:18:26.323Z,5.52
2023-01-30T08:19:26.293Z,5.54
2023-01-30T08:20:26.304Z,5.52
2023-01-30T08:21:26.286Z,5.52
2023-01-30T08:22:26.265Z,5.52
2023-01-30T08:23:26.265Z,5.51
2023-01-30T08:24:26.243Z,5.58
2023-01-30T08:25:26.250Z,5.52
2023-01-30T08:26:26.246Z,5.47
2023-01-30T08:27:26.215Z,5.58
2023-01-30T08:28:26.211Z,5.51
2023-01-30T08:29:26.211Z,5.44
2023-01-30T08:30:26.207Z,5.61
2023-01-30T08:31:26.205Z,5.59
2023-01-30T08:32:26.181Z,5.65
2023-01-30T08:33:26.144Z,5.67
2023-01-30T08:34:26.139Z,5.69
2023-01-30T08:35:26.127Z,5.52
2023-01-30T08:36:26.131Z,5.58
2023-01-30T08:37:26.101Z,5.70
2023-01-30T08:38:26.099Z,5.70
2023-01-30T08:39:26.080Z,5.69
2023-01-30T08:40:26.084Z,5.77
2023-01-30T08:41:26.063Z,5.79
2023-01-30T08:42:26.055Z,5.79
2023-01-30T08:43:26.090Z,5.75
2023-01-30T08:44:26.033Z,5.75
2023-01-30T08:45:26.027Z,5.66
2023-01-30T08:46:26.035Z,5.76
2023-01-30T08:47:26.007Z,5.76
2023-01-30T08:48:28.174Z,5.69
2023-01-30T08:49:25.997Z,5.76
2023-01-30T08:50:25.997Z,5.73
2023-01-30T08:51:25.965Z,5.77
2023-01-30T08:52:25.940Z,5.76
2023-01-30T08:53:25.938Z,5.73
2023-01-30T08:54:25.928Z,5.77
2023-01-30T08:55:25.928Z,5.77
2023-01-30T08:56:25.906Z,5.87
2023-01-30T08:57:25.896Z,5.91
2023-01-30T08:58:25.888Z,5.97
2023-01-30T08:59:25.888Z,6.09
2023-01-30T09:00:25.887Z,6.11
2023-01-30T09:01:25.918Z,6.27
2023-01-30T09:02:25.844Z,6.43
2023-01-30T09:03:25.841Z,6.50
2023-01-30T09:04:25.845Z,6.50
2023-01-30T09:05:25.849Z,6.60
2023-01-30T09:06:26.349Z,6.67
2023-01-30T09:07:25.781Z,6.60
2023-01-30T09:08:25.789Z,6.55
2023-01-30T09:09:25.758Z,6.75
2023-01-30T09:10:25.817Z,6.75
2023-01-30T09:11:25.755Z,6.70
2023-01-30T09:12:25.731Z,6.70
2023-01-30T09:13:25.719Z,6.82
2023-01-30T09:14:25.716Z,6.79
2023-01-30T09:15:25.713Z,6.82
2023-01-30T09:16:25.738Z,6.71
2023-01-30T09:17:25.678Z,6.82
2023-01-30T09:18:25.696Z,6.85
2023-01-30T09:19:25.652Z,6.81
2023-01-30T09:20:25.806Z,6.79
2023-01-30T09:21:25.673Z,6.79
2023-01-30T09:22:26.322Z,6.82
2023-01-30T09:23:25.634Z,6.85
2023-01-30T09:24:25.604Z,6.75
2023-01-30T09:25:25.597Z,6.75
2023-01-30T09:26:25.668Z,6.73
2023-01-30T09:27:25.584Z,6.86
2023-01-30T09:28:25.575Z,6.93
2023-01-30T09:29:25.562Z,6.96
2023-01-30T09:30:25.615Z,6.99
2023-01-30T09:31:25.667Z,6.91
2023-01-30T09:32:25.524Z,7.06
2023-01-30T09:33:25.505Z,7.03
2023-01-30T09:34:25.499Z,7.00
2023-01-30T09:35:25.496Z,6.89
2023-01-30T09:36:25.498Z,6.91
2023-01-30T09:37:25.504Z,6.89
2023-01-30T09:38:25.456Z,6.91
2023-01-30T09:39:25.449Z,6.89
2023-01-30T09:40:25.488Z,6.97
2023-01-30T09:41:25.511Z,6.96
2023-01-30T09:42:25.409Z,7.00
2023-01-30T09:43:25.406Z,6.97
2023-01-30T09:44:25.384Z,7.01
2023-01-30T09:45:25.395Z,7.16
2023-01-30T09:46:25.440Z,7.08
2023-01-30T09:47:25.370Z,7.01
2023-01-30T09:48:25.358Z,6.86
2023-01-30T09:49:25.353Z,6.96
2023-01-30T09:50:25.340Z,6.88
2023-01-30T09:51:25.311Z,6.89
2023-01-30T09:52:25.330Z,6.75
2023-01-30T09:53:25.307Z,6.86
2023-01-30T09:54:25.289Z,6.75
2023-01-30T09:55:25.291Z,6.74
2023-01-30T09:56:25.269Z,6.71
2023-01-30T09:57:25.244Z,6.60
2023-01-30T09:58:25.234Z,6.57
2023-01-30T09:59:25.244Z,6.63
2023-01-30T10:00:25.230Z,6.60
2023-01-30T10:01:25.206Z,6.64
2023-01-30T10:02:25.215Z,6.71
2023-01-30T10:03:25.239Z,6.73
2023-01-30T10:04:25.234Z,6.81
2023-01-30T10:05:25.167Z,6.82
2023-01-30T10:06:25.151Z,6.91
2023-01-30T10:07:25.197Z,6.89
2023-01-30T10:08:25.163Z,6.96
2023-01-30T10:09:25.475Z,6.92
2023-01-30T10:10:25.122Z,6.92
2023-01-30T10:11:25.099Z,6.85
2023-01-30T10:12:25.102Z,6.91
2023-01-30T10:13:25.089Z,7.01
2023-01-30T10:14:25.125Z,7.00
2023-01-30T10:15:25.064Z,7.03
2023-01-30T10:16:25.046Z,7.10
2023-01-30T10:17:25.047Z,7.01
2023-01-30T10:18:25.041Z,7.01
2023-01-30T10:19:35.376Z,7.07
2023-01-30T10:20:26.087Z,7.16
2023-01-30T10:21:25.011Z,7.18
2023-01-30T10:22:24.995Z,7.40
2023-01-30T10:23:24.972Z,7.46
2023-01-30T10:24:24.986Z,7.60
2023-01-30T10:25:24.968Z,7.81
2023-01-30T10:26:25.023Z,7.91
2023-01-30T10:27:24.938Z,7.86
2023-01-30T10:28:24.919Z,7.81
2023-01-30T10:29:24.898Z,7.98
2023-01-30T10:30:25.125Z,7.94
2023-01-30T10:31:24.941Z,7.77
2023-01-30T10:32:24.871Z,7.64
2023-01-30T10:33:24.873Z,7.62
2023-01-30T10:34:24.851Z,7.60
2023-01-30T10:35:26.188Z,7.64
2023-01-30T10:36:24.831Z,7.69
2023-01-30T10:37:24.834Z,7.71
2023-01-30T10:38:24.877Z,7.57
2023-01-30T10:39:24.799Z,7.60
2023-01-30T10:40:24.832Z,7.64
2023-01-30T10:41:24.791Z,7.39
2023-01-30T10:42:24.778Z,7.42
2023-01-30T10:43:24.753Z,7.44
2023-01-30T10:44:24.752Z,7.44
2023-01-30T10:45:24.730Z,7.43
2023-01-30T10:46:24.761Z,7.34
2023-01-30T10:47:26.453Z,7.29
2023-01-30T10:48:34.456Z,7.28
2023-01-30T10:49:25.684Z,7.33
2023-01-30T10:50:24.679Z,7.25
2023-01-30T10:51:24.698Z,7.21
2023-01-30T10:52:24.677Z,7.22
2023-01-30T10:53:24.670Z,7.26
2023-01-30T10:54:24.644Z,7.29
2023-01-30T10:55:36.465Z,7.19
2023-01-30T10:56:25.647Z,7.28
2023-01-30T10:57:24.609Z,7.16
2023-01-30T10:58:24.616Z,7.21
2023-01-30T10:59:24.609Z,7.21
2023-01-30T11:00:24.571Z,7.21
2023-01-30T11:01:24.611Z,7.18
2023-01-30T11:02:24.620Z,7.18
2023-01-30T11:03:24.563Z,7.21
2023-01-30T11:04:24.536Z,7.18
2023-01-30T11:05:24.553Z,7.22
2023-01-30T11:06:24.514Z,7.34
2023-01-30T11:07:24.539Z,7.37
2023-01-30T11:08:24.488Z,7.47
2023-01-30T11:09:24.750Z,7.49
2023-01-30T11:10:24.481Z,7.50
2023-01-30T11:11:24.473Z,7.69
2023-01-30T11:12:24.480Z,7.78
2023-01-30T11:13:24.433Z,7.58
2023-01-30T11:14:24.437Z,7.62
2023-01-30T11:15:24.437Z,7.73
2023-01-30T11:16:24.471Z,7.69
2023-01-30T11:17:24.394Z,7.62
2023-01-30T11:19:25.381Z,7.60
2023-01-30T11:20:24.354Z,7.55
2023-01-30T11:21:27.073Z,7.68
2023-01-30T11:22:25.346Z,7.58
2023-01-30T11:23:24.339Z,7.64
2023-01-30T11:24:24.330Z,7.62
2023-01-30T11:25:24.316Z,7.71
2023-01-30T11:26:29.419Z,7.71
2023-01-30T11:27:25.287Z,7.88
2023-01-30T11:28:24.288Z,7.91
2023-01-30T11:29:24.276Z,7.87
2023-01-30T11:30:24.253Z,7.92
2023-01-30T11:31:39.971Z,7.94
2023-01-30T11:32:25.398Z,7.98
2023-01-30T11:33:24.233Z,7.91
2023-01-30T11:34:24.258Z,8.01
2023-01-30T11:35:24.197Z,7.94
2023-01-30T11:36:24.198Z,7.84
2023-01-30T11:37:24.191Z,7.84
2023-01-30T11:38:24.178Z,7.74
2023-01-30T11:39:24.151Z,7.74
2023-01-30T11:40:24.157Z,7.64
2023-01-30T11:41:24.132Z,7.61
2023-01-30T11:42:24.133Z,7.60
2023-01-30T11:43:24.112Z,7.68
2023-01-30T11:44:24.122Z,7.62
2023-01-30T11:45:24.109Z,7.66
2023-01-30T11:46:24.086Z,7.57
2023-01-30T11:47:24.089Z,7.62
2023-01-30T11:48:33.129Z,7.74
2023-01-30T11:49:46.407Z,7.74
2023-01-30T11:50:32.084Z,7.74
2023-01-30T11:51:25.041Z,7.86
2023-01-30T11:52:24.016Z,7.92
2023-01-30T11:53:24.029Z,7.88
2023-01-30T11:54:24.014Z,7.94
2023-01-30T11:55:24.026Z,7.98
2023-01-30T11:56:23.992Z,7.95
2023-01-30T11:57:23.961Z,7.98
2023-01-30T11:58:23.954Z,7.96
2023-01-30T11:59:23.948Z,7.91
2023-01-30T12:00:23.999Z,7.94
2023-01-30T12:01:23.933Z,7.92
2023-01-30T12:02:24.030Z,8.10
2023-01-30T12:03:23.957Z,8.10
2023-01-30T12:04:23.884Z,8.09
2023-01-30T12:05:23.873Z,7.95
2023-01-30T12:06:23.884Z,8.04
2023-01-30T12:07:23.857Z,8.06
2023-01-30T12:08:39.418Z,8.20
2023-01-30T12:09:24.838Z,8.20
2023-01-30T12:10:23.854Z,8.21
2023-01-30T12:11:23.823Z,8.19
2023-01-30T12:12:23.805Z,8.20
2023-01-30T12:13:23.791Z,8.13
2023-01-30T12:14:23.778Z,8.05
2023-01-30T12:15:23.797Z,8.05
2023-01-30T12:16:23.848Z,7.99
2023-01-30T12:17:23.743Z,7.98
2023-01-30T12:18:23.736Z,7.92
2023-01-30T12:19:23.737Z,8.02
2023-01-30T12:20:23.718Z,8.12
2023-01-30T12:21:23.720Z,8.20
2023-01-30T12:22:23.703Z,8.34
2023-01-30T12:23:23.690Z,8.32
2023-01-30T12:24:23.682Z,8.46
2023-01-30T12:25:23.663Z,8.60
2023-01-30T12:26:23.702Z,8.39
2023-01-30T12:27:23.641Z,8.41
2023-01-30T12:28:23.644Z,8.47
2023-01-30T12:29:23.640Z,8.56
2023-01-30T12:30:23.612Z,8.56
2023-01-30T12:31:23.606Z,8.53
2023-01-30T12:32:23.619Z,8.49
2023-01-30T12:33:23.592Z,8.52
2023-01-30T12:34:27.057Z,8.55
2023-01-30T12:35:23.584Z,8.56
2023-01-30T12:36:23.552Z,8.68
2023-01-30T12:37:23.537Z,8.70
2023-01-30T12:38:23.540Z,8.77
2023-01-30T12:39:23.526Z,8.71
2023-01-30T12:40:23.516Z,8.63
2023-01-30T12:41:23.495Z,8.63
2023-01-30T12:42:25.643Z,8.68
2023-01-30T12:43:23.488Z,8.62
2023-01-30T12:44:23.466Z,8.74
2023-01-30T12:45:23.456Z,8.60
2023-01-30T12:46:23.537Z,8.78
2023-01-30T12:47:23.436Z,8.85
2023-01-30T12:48:23.447Z,8.96
2023-01-30T12:49:23.414Z,8.85
2023-01-30T12:50:23.410Z,8.72
2023-01-30T12:51:23.398Z,8.71
2023-01-30T12:52:23.387Z,8.60
2023-01-30T12:53:23.370Z,8.38
2023-01-30T12:54:23.386Z,8.31
2023-01-30T12:55:23.363Z,8.24
2023-01-30T12:56:23.340Z,8.17
2023-01-30T12:57:23.343Z,8.14
2023-01-30T12:58:23.329Z,7.98
2023-01-30T12:59:23.326Z,7.92
2023-01-30T13:00:23.307Z,7.94
2023-01-30T13:01:23.304Z,7.91
2023-01-30T13:02:25.575Z,7.95
2023-01-30T13:03:23.293Z,7.92
2023-01-30T13:04:23.274Z,7.91
2023-01-30T13:05:23.245Z,7.87
2023-01-30T13:06:23.243Z,7.83
2023-01-30T13:07:23.224Z,7.81
2023-01-30T13:08:23.211Z,7.71
2023-01-30T13:09:23.225Z,7.73
2023-01-30T13:10:23.721Z,7.76
2023-01-30T13:11:23.188Z,7.76
2023-01-30T13:12:23.167Z,7.78
2023-01-30T13:13:23.150Z,7.86
2023-01-30T13:14:23.141Z,7.92
2023-01-30T13:15:23.164Z,7.91
2023-01-30T13:16:23.206Z,7.88
2023-01-30T13:17:23.140Z,7.94
2023-01-30T13:18:23.096Z,7.96
2023-01-30T13:19:25.420Z,7.95